sensor_id;sensor_type;location;lat;lon;timestamp;P1;durP1;ratioP1;P2;durP2;ratioP2
55312;SDS011;46892;45.668;11.756;2023-02-01T00:01:44;83.17;;;43.57;;
55312;SDS011;46892;45.668;11.756;2023-02-01T00:04:10;74.03;;;41.70;;
55312;SDS011;46892;45.668;11.756;2023-02-01T00:06:36;73.97;;;42.90;;
55312;SDS011;46892;45.668;11.756;2023-02-01T00:09:02;71.30;;;41.57;;
55312;SDS011;46892;45.668;11.756;2023-02-01T00:11:28;71.43;;;41.23;;
55312;SDS011;46892;45.668;11.756;2023-02-01T00:13:54;69.20;;;39.00;;
55312;SDS011;46892;45.668;11.756;2023-02-01T00:16:23;68.90;;;40.73;;
55312;SDS011;46892;45.668;11.756;2023-02-01T00:18:55;78.53;;;42.27;;
55312;SDS011;46892;45.668;11.756;2023-02-01T00:21:32;83.28;;;45.42;;
55312;SDS011;46892;45.668;11.756;2023-02-01T00:23:58;85.97;;;46.20;;
55312;SDS011;46892;45.668;11.756;2023-02-01T00:29:03;82.47;;;43.73;;
55312;SDS011;46892;45.668;11.756;2023-02-01T00:31:31;82.07;;;43.47;;
55312;SDS011;46892;45.668;11.756;2023-02-01T00:33:57;68.63;;;38.60;;
55312;SDS011;46892;45.668;11.756;2023-02-01T00:36:23;72.30;;;40.20;;
55312;SDS011;46892;45.668;11.756;2023-02-01T00:38:49;68.43;;;39.30;;
55312;SDS011;46892;45.668;11.756;2023-02-01T00:41:19;70.17;;;39.47;;
55312;SDS011;46892;45.668;11.756;2023-02-01T00:43:46;66.20;;;39.72;;
55312;SDS011;46892;45.668;11.756;2023-02-01T00:46:13;64.90;;;38.03;;
55312;SDS011;46892;45.668;11.756;2023-02-01T00:48:39;60.40;;;36.53;;
55312;SDS011;46892;45.668;11.756;2023-02-01T00:51:07;59.83;;;35.83;;
55312;SDS011;46892;45.668;11.756;2023-02-01T00:53:36;59.40;;;35.97;;
55312;SDS011;46892;45.668;11.756;2023-02-01T00:56:02;53.57;;;33.73;;
55312;SDS011;46892;45.668;11.756;2023-02-01T00:58:28;66.87;;;34.67;;
55312;SDS011;46892;45.668;11.756;2023-02-01T01:01:01;54.37;;;33.83;;
55312;SDS011;46892;45.668;11.756;2023-02-01T01:03:29;56.90;;;32.80;;
55312;SDS011;46892;45.668;11.756;2023-02-01T01:05:58;55.00;;;33.37;;
55312;SDS011;46892;45.668;11.756;2023-02-01T01:08:25;52.50;;;32.47;;
55312;SDS011;46892;45.668;11.756;2023-02-01T01:10:51;54.73;;;33.53;;
55312;SDS011;46892;45.668;11.756;2023-02-01T01:13:17;55.93;;;32.83;;
55312;SDS011;46892;45.668;11.756;2023-02-01T01:15:42;53.70;;;33.40;;
55312;SDS011;46892;45.668;11.756;2023-02-01T01:18:08;56.90;;;31.60;;
55312;SDS011;46892;45.668;11.756;2023-02-01T01:20:34;58.50;;;32.93;;
55312;SDS011;46892;45.668;11.756;2023-02-01T01:23:01;58.27;;;31.70;;
55312;SDS011;46892;45.668;11.756;2023-02-01T01:25:28;62.13;;;35.47;;
55312;SDS011;46892;45.668;11.756;2023-02-01T01:27:54;50.27;;;31.23;;
55312;SDS011;46892;45.668;11.756;2023-02-01T01:30:20;51.90;;;30.67;;
55312;SDS011;46892;45.668;11.756;2023-02-01T01:32:46;52.93;;;32.10;;
55312;SDS011;46892;45.668;11.756;2023-02-01T01:35:11;55.30;;;30.83;;
55312;SDS011;46892;45.668;11.756;2023-02-01T01:37:37;51.20;;;30.57;;
55312;SDS011;46892;45.668;11.756;2023-02-01T01:40:04;50.87;;;29.23;;
55312;SDS011;46892;45.668;11.756;2023-02-01T01:42:30;47.67;;;27.87;;
55312;SDS011;46892;45.668;11.756;2023-02-01T01:45:06;49.00;;;29.30;;
55312;SDS011;46892;45.668;11.756;2023-02-01T01:47:37;49.05;;;28.10;;
55312;SDS011;46892;45.668;11.756;2023-02-01T01:50:07;53.07;;;27.43;;
55312;SDS011;46892;45.668;11.756;2023-02-01T01:52:36;51.90;;;28.43;;
55312;SDS011;46892;45.668;11.756;2023-02-01T01:55:03;41.33;;;24.30;;
55312;SDS011;46892;45.668;11.756;2023-02-01T01:57:35;42.40;;;25.17;;
55312;SDS011;46892;45.668;11.756;2023-02-01T02:00:09;44.63;;;26.10;;
55312;SDS011;46892;45.668;11.756;2023-02-01T02:02:37;46.93;;;26.10;;
55312;SDS011;46892;45.668;11.756;2023-02-01T02:05:04;42.30;;;26.13;;
55312;SDS011;46892;45.668;11.756;2023-02-01T02:07:35;42.27;;;24.63;;
55312;SDS011;46892;45.668;11.756;2023-02-01T02:10:05;42.17;;;23.90;;
55312;SDS011;46892;45.668;11.756;2023-02-01T02:12:35;45.07;;;24.93;;
55312;SDS011;46892;45.668;11.756;2023-02-01T02:15:04;41.10;;;24.27;;
55312;SDS011;46892;45.668;11.756;2023-02-01T02:26:01;45.15;;;23.67;;
55312;SDS011;46892;45.668;11.756;2023-02-01T02:34:51;39.53;;;22.23;;
55312;SDS011;46892;45.668;11.756;2023-02-01T02:42:31;39.10;;;21.37;;
55312;SDS011;46892;45.668;11.756;2023-02-01T02:45:34;34.73;;;20.87;;
55312;SDS011;46892;45.668;11.756;2023-02-01T02:48:26;35.73;;;20.37;;
55312;SDS011;46892;45.668;11.756;2023-02-01T02:51:07;36.80;;;21.70;;
55312;SDS011;46892;45.668;11.756;2023-02-01T02:54:06;35.47;;;20.20;;
55312;SDS011;46892;45.668;11.756;2023-02-01T02:56:51;30.97;;;18.90;;
55312;SDS011;46892;45.668;11.756;2023-02-01T02:59:39;34.77;;;20.13;;
55312;SDS011;46892;45.668;11.756;2023-02-01T03:02:27;32.63;;;18.87;;
55312;SDS011;46892;45.668;11.756;2023-02-01T03:05:12;31.07;;;18.73;;
55312;SDS011;46892;45.668;11.756;2023-02-01T03:12:53;32.43;;;18.27;;
55312;SDS011;46892;45.668;11.756;2023-02-01T03:15:36;29.77;;;17.92;;
55312;SDS011;46892;45.668;11.756;2023-02-01T03:18:40;31.77;;;18.57;;
55312;SDS011;46892;45.668;11.756;2023-02-01T03:21:34;32.60;;;19.23;;
55312;SDS011;46892;45.668;11.756;2023-02-01T03:24:11;33.53;;;18.43;;
55312;SDS011;46892;45.668;11.756;2023-02-01T03:26:43;40.60;;;20.03;;
55312;SDS011;46892;45.668;11.756;2023-02-01T03:29:14;36.17;;;19.77;;
55312;SDS011;46892;45.668;11.756;2023-02-01T03:31:43;32.03;;;19.17;;
55312;SDS011;46892;45.668;11.756;2023-02-01T03:34:10;33.33;;;19.60;;
55312;SDS011;46892;45.668;11.756;2023-02-01T03:36:39;38.37;;;18.57;;
55312;SDS011;46892;45.668;11.756;2023-02-01T03:39:21;31.97;;;18.70;;
55312;SDS011;46892;45.668;11.756;2023-02-01T03:41:56;34.10;;;17.90;;
55312;SDS011;46892;45.668;11.756;2023-02-01T03:44:30;31.17;;;18.50;;
55312;SDS011;46892;45.668;11.756;2023-02-01T03:47:10;33.97;;;20.15;;
55312;SDS011;46892;45.668;11.756;2023-02-01T03:49:44;30.23;;;18.93;;
55312;SDS011;46892;45.668;11.756;2023-02-01T03:52:36;30.13;;;18.43;;
55312;SDS011;46892;45.668;11.756;2023-02-01T03:55:16;25.80;;;15.50;;
55312;SDS011;46892;45.668;11.756;2023-02-01T03:57:48;38.57;;;15.40;;
55312;SDS011;46892;45.668;11.756;2023-02-01T04:00:34;26.27;;;14.83;;
55312;SDS011;46892;45.668;11.756;2023-02-01T04:03:00;25.70;;;15.40;;
55312;SDS011;46892;45.668;11.756;2023-02-01T04:05:29;27.60;;;14.87;;
55312;SDS011;46892;45.668;11.756;2023-02-01T04:07:55;25.73;;;14.90;;
55312;SDS011;46892;45.668;11.756;2023-02-01T04:10:21;30.53;;;16.33;;
55312;SDS011;46892;45.668;11.756;2023-02-01T04:12:47;27.67;;;15.90;;
55312;SDS011;46892;45.668;11.756;2023-02-01T04:15:12;27.03;;;15.90;;
55312;SDS011;46892;45.668;11.756;2023-02-01T04:17:38;29.17;;;15.47;;
55312;SDS011;46892;45.668;11.756;2023-02-01T04:20:04;24.83;;;14.20;;
55312;SDS011;46892;45.668;11.756;2023-02-01T04:22:30;25.93;;;14.47;;
55312;SDS011;46892;45.668;11.756;2023-02-01T04:24:56;22.20;;;12.17;;
55312;SDS011;46892;45.668;11.756;2023-02-01T04:27:21;23.17;;;12.70;;
55312;SDS011;46892;45.668;11.756;2023-02-01T04:29:47;24.27;;;13.83;;
55312;SDS011;46892;45.668;11.756;2023-02-01T04:32:14;23.53;;;13.60;;
55312;SDS011;46892;45.668;11.756;2023-02-01T04:34:41;22.57;;;13.27;;
55312;SDS011;46892;45.668;11.756;2023-02-01T04:37:07;23.13;;;11.80;;
55312;SDS011;46892;45.668;11.756;2023-02-01T04:39:33;20.67;;;11.90;;
55312;SDS011;46892;45.668;11.756;2023-02-01T04:41:59;20.63;;;11.43;;
55312;SDS011;46892;45.668;11.756;2023-02-01T04:44:24;21.53;;;12.63;;
55312;SDS011;46892;45.668;11.756;2023-02-01T04:46:50;24.17;;;14.07;;
55312;SDS011;46892;45.668;11.756;2023-02-01T04:49:15;25.10;;;13.70;;
55312;SDS011;46892;45.668;11.756;2023-02-01T04:51:41;24.53;;;13.37;;
55312;SDS011;46892;45.668;11.756;2023-02-01T04:54:08;26.53;;;13.90;;
55312;SDS011;46892;45.668;11.756;2023-02-01T04:56:36;25.17;;;14.23;;
55312;SDS011;46892;45.668;11.756;2023-02-01T04:59:02;28.07;;;13.93;;
55312;SDS011;46892;45.668;11.756;2023-02-01T05:01:28;22.13;;;13.23;;
55312;SDS011;46892;45.668;11.756;2023-02-01T05:03:54;25.93;;;14.53;;
55312;SDS011;46892;45.668;11.756;2023-02-01T05:06:20;21.50;;;12.53;;
55312;SDS011;46892;45.668;11.756;2023-02-01T05:08:46;21.07;;;12.23;;
55312;SDS011;46892;45.668;11.756;2023-02-01T05:11:11;23.07;;;14.13;;
55312;SDS011;46892;45.668;11.756;2023-02-01T05:13:58;26.80;;;14.30;;
55312;SDS011;46892;45.668;11.756;2023-02-01T05:16:24;25.70;;;13.20;;
55312;SDS011;46892;45.668;11.756;2023-02-01T05:18:50;22.83;;;12.93;;
55312;SDS011;46892;45.668;11.756;2023-02-01T05:21:16;25.00;;;13.43;;
55312;SDS011;46892;45.668;11.756;2023-02-01T05:23:42;21.40;;;12.13;;
55312;SDS011;46892;45.668;11.756;2023-02-01T05:26:26;23.07;;;11.63;;
55312;SDS011;46892;45.668;11.756;2023-02-01T05:28:52;22.57;;;11.77;;
55312;SDS011;46892;45.668;11.756;2023-02-01T05:31:17;21.53;;;11.50;;
55312;SDS011;46892;45.668;11.756;2023-02-01T05:33:43;20.93;;;10.63;;
55312;SDS011;46892;45.668;11.756;2023-02-01T05:36:09;22.20;;;11.33;;
55312;SDS011;46892;45.668;11.756;2023-02-01T05:38:35;17.53;;;9.77;;
55312;SDS011;46892;45.668;11.756;2023-02-01T05:41:00;16.73;;;10.10;;
55312;SDS011;46892;45.668;11.756;2023-02-01T05:43:26;17.47;;;9.67;;
55312;SDS011;46892;45.668;11.756;2023-02-01T05:45:52;18.20;;;10.03;;
55312;SDS011;46892;45.668;11.756;2023-02-01T05:48:17;21.87;;;9.93;;
55312;SDS011;46892;45.668;11.756;2023-02-01T05:50:43;19.63;;;10.20;;
55312;SDS011;46892;45.668;11.756;2023-02-01T05:53:09;19.60;;;10.10;;
55312;SDS011;46892;45.668;11.756;2023-02-01T05:55:35;18.90;;;10.40;;
55312;SDS011;46892;45.668;11.756;2023-02-01T05:58:01;22.87;;;11.97;;
55312;SDS011;46892;45.668;11.756;2023-02-01T06:00:27;20.43;;;11.23;;
55312;SDS011;46892;45.668;11.756;2023-02-01T06:02:53;20.37;;;11.07;;
55312;SDS011;46892;45.668;11.756;2023-02-01T06:05:19;26.87;;;13.73;;
55312;SDS011;46892;45.668;11.756;2023-02-01T06:07:44;24.90;;;13.27;;
55312;SDS011;46892;45.668;11.756;2023-02-01T06:10:10;30.17;;;16.20;;
55312;SDS011;46892;45.668;11.756;2023-02-01T06:12:36;26.37;;;14.60;;
55312;SDS011;46892;45.668;11.756;2023-02-01T06:15:02;22.53;;;12.00;;
55312;SDS011;46892;45.668;11.756;2023-02-01T06:17:28;46.73;;;21.03;;
55312;SDS011;46892;45.668;11.756;2023-02-01T06:19:54;49.57;;;24.73;;
55312;SDS011;46892;45.668;11.756;2023-02-01T06:22:19;35.63;;;19.50;;
55312;SDS011;46892;45.668;11.756;2023-02-01T06:24:47;52.33;;;27.50;;
55312;SDS011;46892;45.668;11.756;2023-02-01T06:27:12;59.77;;;33.57;;
55312;SDS011;46892;45.668;11.756;2023-02-01T06:29:39;44.00;;;24.47;;
55312;SDS011;46892;45.668;11.756;2023-02-01T06:32:05;30.00;;;16.90;;
55312;SDS011;46892;45.668;11.756;2023-02-01T06:34:31;39.90;;;20.83;;
55312;SDS011;46892;45.668;11.756;2023-02-01T06:36:57;40.20;;;19.17;;
55312;SDS011;46892;45.668;11.756;2023-02-01T06:39:22;28.23;;;16.17;;
55312;SDS011;46892;45.668;11.756;2023-02-01T06:41:48;30.03;;;15.43;;
55312;SDS011;46892;45.668;11.756;2023-02-01T06:44:14;29.40;;;16.10;;
55312;SDS011;46892;45.668;11.756;2023-02-01T06:46:41;42.17;;;20.50;;
55312;SDS011;46892;45.668;11.756;2023-02-01T06:49:06;42.07;;;21.93;;
55312;SDS011;46892;45.668;11.756;2023-02-01T06:51:32;52.20;;;28.10;;
55312;SDS011;46892;45.668;11.756;2023-02-01T06:53:58;36.00;;;21.20;;
55312;SDS011;46892;45.668;11.756;2023-02-01T06:56:24;35.13;;;18.83;;
55312;SDS011;46892;45.668;11.756;2023-02-01T06:58:49;33.80;;;18.93;;
55312;SDS011;46892;45.668;11.756;2023-02-01T07:01:15;35.93;;;19.07;;
55312;SDS011;46892;45.668;11.756;2023-02-01T07:03:41;35.37;;;17.77;;
55312;SDS011;46892;45.668;11.756;2023-02-01T07:06:09;34.17;;;18.50;;
55312;SDS011;46892;45.668;11.756;2023-02-01T07:08:36;37.10;;;19.77;;
55312;SDS011;46892;45.668;11.756;2023-02-01T07:11:03;43.10;;;19.43;;
55312;SDS011;46892;45.668;11.756;2023-02-01T07:13:33;33.90;;;19.20;;
55312;SDS011;46892;45.668;11.756;2023-02-01T07:16:00;34.20;;;20.17;;
55312;SDS011;46892;45.668;11.756;2023-02-01T07:18:27;42.17;;;19.37;;
55312;SDS011;46892;45.668;11.756;2023-02-01T07:20:54;36.13;;;19.73;;
55312;SDS011;46892;45.668;11.756;2023-02-01T07:23:20;32.43;;;18.47;;
55312;SDS011;46892;45.668;11.756;2023-02-01T07:25:46;36.27;;;20.27;;
55312;SDS011;46892;45.668;11.756;2023-02-01T07:28:12;36.30;;;19.93;;
55312;SDS011;46892;45.668;11.756;2023-02-01T07:30:37;41.60;;;21.60;;
55312;SDS011;46892;45.668;11.756;2023-02-01T07:33:03;39.77;;;22.33;;
55312;SDS011;46892;45.668;11.756;2023-02-01T07:35:29;51.13;;;33.30;;
55312;SDS011;46892;45.668;11.756;2023-02-01T07:37:57;49.23;;;29.20;;
55312;SDS011;46892;45.668;11.756;2023-02-01T07:40:23;43.17;;;26.43;;
55312;SDS011;46892;45.668;11.756;2023-02-01T07:42:53;35.97;;;22.58;;
55312;SDS011;46892;45.668;11.756;2023-02-01T07:45:20;43.00;;;23.43;;
55312;SDS011;46892;45.668;11.756;2023-02-01T07:47:46;40.60;;;22.67;;
55312;SDS011;46892;45.668;11.756;2023-02-01T07:50:12;44.53;;;24.17;;
55312;SDS011;46892;45.668;11.756;2023-02-01T07:52:38;40.10;;;23.50;;
55312;SDS011;46892;45.668;11.756;2023-02-01T07:55:05;37.63;;;22.77;;
55312;SDS011;46892;45.668;11.756;2023-02-01T07:57:31;39.17;;;23.00;;
55312;SDS011;46892;45.668;11.756;2023-02-01T07:59:57;38.70;;;23.40;;
55312;SDS011;46892;45.668;11.756;2023-02-01T08:02:41;35.70;;;21.40;;
55312;SDS011;46892;45.668;11.756;2023-02-01T08:05:07;37.60;;;22.40;;
55312;SDS011;46892;45.668;11.756;2023-02-01T08:07:33;36.47;;;23.33;;
55312;SDS011;46892;45.668;11.756;2023-02-01T08:09:58;46.83;;;24.27;;
55312;SDS011;46892;45.668;11.756;2023-02-01T08:12:25;46.20;;;26.10;;
55312;SDS011;46892;45.668;11.756;2023-02-01T08:14:52;47.80;;;25.87;;
55312;SDS011;46892;45.668;11.756;2023-02-01T08:17:18;44.10;;;26.13;;
55312;SDS011;46892;45.668;11.756;2023-02-01T08:19:44;38.70;;;23.00;;
55312;SDS011;46892;45.668;11.756;2023-02-01T08:22:10;39.13;;;23.93;;
55312;SDS011;46892;45.668;11.756;2023-02-01T08:24:36;48.87;;;28.60;;
55312;SDS011;46892;45.668;11.756;2023-02-01T08:27:04;46.83;;;28.00;;
55312;SDS011;46892;45.668;11.756;2023-02-01T08:29:30;43.20;;;24.10;;
55312;SDS011;46892;45.668;11.756;2023-02-01T08:31:56;39.63;;;22.93;;
55312;SDS011;46892;45.668;11.756;2023-02-01T08:34:22;39.37;;;23.00;;
55312;SDS011;46892;45.668;11.756;2023-02-01T08:36:47;38.70;;;22.67;;
55312;SDS011;46892;45.668;11.756;2023-02-01T08:39:13;42.77;;;23.80;;
55312;SDS011;46892;45.668;11.756;2023-02-01T08:41:39;46.47;;;24.83;;
55312;SDS011;46892;45.668;11.756;2023-02-01T08:44:07;49.37;;;27.50;;
55312;SDS011;46892;45.668;11.756;2023-02-01T08:46:32;51.13;;;28.03;;
55312;SDS011;46892;45.668;11.756;2023-02-01T08:48:58;53.13;;;29.70;;
55312;SDS011;46892;45.668;11.756;2023-02-01T08:51:24;49.40;;;28.07;;
55312;SDS011;46892;45.668;11.756;2023-02-01T08:53:50;49.10;;;28.13;;
55312;SDS011;46892;45.668;11.756;2023-02-01T08:56:16;63.90;;;34.57;;
55312;SDS011;46892;45.668;11.756;2023-02-01T08:58:43;68.50;;;36.73;;
55312;SDS011;46892;45.668;11.756;2023-02-01T09:01:10;68.97;;;38.47;;
55312;SDS011;46892;45.668;11.756;2023-02-01T09:03:38;61.37;;;37.93;;
55312;SDS011;46892;45.668;11.756;2023-02-01T09:06:08;60.47;;;37.37;;
55312;SDS011;46892;45.668;11.756;2023-02-01T09:08:38;59.63;;;36.90;;
55312;SDS011;46892;45.668;11.756;2023-02-01T09:11:06;61.43;;;34.70;;
55312;SDS011;46892;45.668;11.756;2023-02-01T09:16:01;66.83;;;37.67;;
55312;SDS011;46892;45.668;11.756;2023-02-01T09:18:28;65.97;;;39.00;;
55312;SDS011;46892;45.668;11.756;2023-02-01T09:20:53;61.77;;;37.00;;
55312;SDS011;46892;45.668;11.756;2023-02-01T09:23:19;69.40;;;39.30;;
55312;SDS011;46892;45.668;11.756;2023-02-01T09:25:45;71.43;;;39.53;;
55312;SDS011;46892;45.668;11.756;2023-02-01T09:28:12;71.97;;;39.17;;
55312;SDS011;46892;45.668;11.756;2023-02-01T09:30:37;63.80;;;38.10;;
55312;SDS011;46892;45.668;11.756;2023-02-01T09:33:03;67.00;;;38.67;;
55312;SDS011;46892;45.668;11.756;2023-02-01T09:35:29;65.57;;;37.70;;
55312;SDS011;46892;45.668;11.756;2023-02-01T09:37:55;65.70;;;38.00;;
55312;SDS011;46892;45.668;11.756;2023-02-01T09:40:21;72.47;;;40.03;;
55312;SDS011;46892;45.668;11.756;2023-02-01T09:45:20;72.90;;;39.23;;
55312;SDS011;46892;45.668;11.756;2023-02-01T09:48:05;70.23;;;39.20;;
55312;SDS011;46892;45.668;11.756;2023-02-01T09:50:38;79.80;;;42.43;;
55312;SDS011;46892;45.668;11.756;2023-02-01T09:55:48;84.30;;;48.67;;
55312;SDS011;46892;45.668;11.756;2023-02-01T10:01:21;94.13;;;51.90;;
55312;SDS011;46892;45.668;11.756;2023-02-01T10:03:49;94.70;;;52.80;;
55312;SDS011;46892;45.668;11.756;2023-02-01T10:06:30;89.20;;;51.00;;
55312;SDS011;46892;45.668;11.756;2023-02-01T10:09:20;89.43;;;48.57;;
55312;SDS011;46892;45.668;11.756;2023-02-01T10:14:40;85.20;;;48.77;;
55312;SDS011;46892;45.668;11.756;2023-02-01T10:25:55;75.63;;;42.07;;
55312;SDS011;46892;45.668;11.756;2023-02-01T10:28:29;69.37;;;40.20;;
55312;SDS011;46892;45.668;11.756;2023-02-01T10:30:59;75.13;;;42.40;;
55312;SDS011;46892;45.668;11.756;2023-02-01T10:33:30;72.27;;;43.10;;
55312;SDS011;46892;45.668;11.756;2023-02-01T10:38:38;74.47;;;41.73;;
55312;SDS011;46892;45.668;11.756;2023-02-01T10:41:10;73.30;;;42.50;;
55312;SDS011;46892;45.668;11.756;2023-02-01T10:43:42;66.53;;;39.07;;
55312;SDS011;46892;45.668;11.756;2023-02-01T10:46:09;68.93;;;39.83;;
55312;SDS011;46892;45.668;11.756;2023-02-01T10:48:35;77.97;;;41.03;;
55312;SDS011;46892;45.668;11.756;2023-02-01T10:51:06;71.10;;;40.30;;
55312;SDS011;46892;45.668;11.756;2023-02-01T10:53:49;70.13;;;40.90;;
55312;SDS011;46892;45.668;11.756;2023-02-01T10:56:23;67.57;;;39.40;;
55312;SDS011;46892;45.668;11.756;2023-02-01T10:58:50;69.50;;;41.20;;
55312;SDS011;46892;45.668;11.756;2023-02-01T11:01:36;76.77;;;43.07;;
55312;SDS011;46892;45.668;11.756;2023-02-01T11:17:28;67.53;;;44.33;;
55312;SDS011;46892;45.668;11.756;2023-02-01T11:20:05;71.30;;;42.67;;
55312;SDS011;46892;45.668;11.756;2023-02-01T11:22:38;74.63;;;44.93;;
55312;SDS011;46892;45.668;11.756;2023-02-01T11:25:13;74.73;;;43.70;;
55312;SDS011;46892;45.668;11.756;2023-02-01T11:27:41;73.67;;;43.67;;
55312;SDS011;46892;45.668;11.756;2023-02-01T11:30:07;77.07;;;45.23;;
55312;SDS011;46892;45.668;11.756;2023-02-01T11:32:39;73.33;;;43.73;;
55312;SDS011;46892;45.668;11.756;2023-02-01T11:35:05;76.40;;;46.10;;
55312;SDS011;46892;45.668;11.756;2023-02-01T11:37:40;76.87;;;44.07;;
55312;SDS011;46892;45.668;11.756;2023-02-01T11:46:00;71.47;;;41.73;;
55312;SDS011;46892;45.668;11.756;2023-02-01T11:48:28;71.40;;;42.67;;
55312;SDS011;46892;45.668;11.756;2023-02-01T11:51:04;70.87;;;43.20;;
55312;SDS011;46892;45.668;11.756;2023-02-01T12:20:51;69.97;;;43.47;;
55312;SDS011;46892;45.668;11.756;2023-02-01T12:23:33;66.40;;;40.20;;
55312;SDS011;46892;45.668;11.756;2023-02-01T12:29:08;66.60;;;39.97;;
55312;SDS011;46892;45.668;11.756;2023-02-01T12:31:40;66.10;;;40.50;;
55312;SDS011;46892;45.668;11.756;2023-02-01T12:52:48;79.23;;;46.00;;
55312;SDS011;46892;45.668;11.756;2023-02-01T12:57:42;76.97;;;46.67;;
55312;SDS011;46892;45.668;11.756;2023-02-01T13:02:59;75.43;;;44.35;;
55312;SDS011;46892;45.668;11.756;2023-02-01T13:05:34;75.95;;;44.58;;
55312;SDS011;46892;45.668;11.756;2023-02-01T13:08:13;72.47;;;43.70;;
55312;SDS011;46892;45.668;11.756;2023-02-01T13:15:51;74.07;;;44.50;;
55312;SDS011;46892;45.668;11.756;2023-02-01T13:18:32;74.53;;;44.67;;
55312;SDS011;46892;45.668;11.756;2023-02-01T13:21:08;73.43;;;44.50;;
55312;SDS011;46892;45.668;11.756;2023-02-01T13:23:40;78.25;;;44.47;;
55312;SDS011;46892;45.668;11.756;2023-02-01T13:26:10;74.23;;;45.23;;
55312;SDS011;46892;45.668;11.756;2023-02-01T13:28:46;67.80;;;40.90;;
55312;SDS011;46892;45.668;11.756;2023-02-01T13:44:58;69.87;;;42.20;;
55312;SDS011;46892;45.668;11.756;2023-02-01T13:47:30;67.17;;;40.90;;
55312;SDS011;46892;45.668;11.756;2023-02-01T13:50:04;77.13;;;42.22;;
55312;SDS011;46892;45.668;11.756;2023-02-01T13:52:51;72.87;;;42.23;;
55312;SDS011;46892;45.668;11.756;2023-02-01T13:55:32;63.83;;;39.97;;
55312;SDS011;46892;45.668;11.756;2023-02-01T13:58:20;68.23;;;40.23;;
55312;SDS011;46892;45.668;11.756;2023-02-01T14:00:53;73.13;;;42.27;;
55312;SDS011;46892;45.668;11.756;2023-02-01T14:03:51;71.67;;;42.57;;
55312;SDS011;46892;45.668;11.756;2023-02-01T14:06:40;77.90;;;44.53;;
55312;SDS011;46892;45.668;11.756;2023-02-01T14:17:29;62.53;;;37.78;;
55312;SDS011;46892;45.668;11.756;2023-02-01T14:21:59;67.40;;;39.07;;
55312;SDS011;46892;45.668;11.756;2023-02-01T14:24:55;68.20;;;40.57;;
55312;SDS011;46892;45.668;11.756;2023-02-01T14:27:26;65.97;;;40.63;;
55312;SDS011;46892;45.668;11.756;2023-02-01T14:29:58;69.93;;;41.97;;
55312;SDS011;46892;45.668;11.756;2023-02-01T14:32:45;76.20;;;43.80;;
55312;SDS011;46892;45.668;11.756;2023-02-01T14:35:18;70.07;;;41.73;;
55312;SDS011;46892;45.668;11.756;2023-02-01T14:37:46;66.87;;;41.47;;
55312;SDS011;46892;45.668;11.756;2023-02-01T14:40:19;72.75;;;43.58;;
55312;SDS011;46892;45.668;11.756;2023-02-01T14:42:50;66.93;;;41.40;;
55312;SDS011;46892;45.668;11.756;2023-02-01T14:55:54;67.93;;;42.13;;
55312;SDS011;46892;45.668;11.756;2023-02-01T14:58:46;69.17;;;41.23;;
55312;SDS011;46892;45.668;11.756;2023-02-01T15:01:30;70.07;;;42.63;;
55312;SDS011;46892;45.668;11.756;2023-02-01T15:04:00;69.67;;;42.27;;
55312;SDS011;46892;45.668;11.756;2023-02-01T15:06:42;70.80;;;42.07;;
55312;SDS011;46892;45.668;11.756;2023-02-01T15:09:14;70.67;;;43.17;;
55312;SDS011;46892;45.668;11.756;2023-02-01T15:14:36;75.87;;;45.03;;
55312;SDS011;46892;45.668;11.756;2023-02-01T15:17:21;81.97;;;47.30;;
55312;SDS011;46892;45.668;11.756;2023-02-01T15:19:57;77.87;;;45.60;;
55312;SDS011;46892;45.668;11.756;2023-02-01T15:22:25;75.53;;;46.70;;
55312;SDS011;46892;45.668;11.756;2023-02-01T15:24:52;83.77;;;47.70;;
55312;SDS011;46892;45.668;11.756;2023-02-01T15:27:19;79.83;;;45.97;;
55312;SDS011;46892;45.668;11.756;2023-02-01T15:29:45;78.10;;;47.03;;
55312;SDS011;46892;45.668;11.756;2023-02-01T15:32:33;77.30;;;46.37;;
55312;SDS011;46892;45.668;11.756;2023-02-01T15:34:58;79.20;;;47.27;;
55312;SDS011;46892;45.668;11.756;2023-02-01T15:37:25;72.57;;;45.57;;
55312;SDS011;46892;45.668;11.756;2023-02-01T15:42:52;75.27;;;43.73;;
55312;SDS011;46892;45.668;11.756;2023-02-01T15:45:27;74.63;;;43.60;;
55312;SDS011;46892;45.668;11.756;2023-02-01T15:47:57;75.80;;;46.03;;
55312;SDS011;46892;45.668;11.756;2023-02-01T15:50:24;72.07;;;45.17;;
55312;SDS011;46892;45.668;11.756;2023-02-01T15:52:51;81.83;;;48.57;;
55312;SDS011;46892;45.668;11.756;2023-02-01T15:57:54;81.70;;;48.93;;
55312;SDS011;46892;45.668;11.756;2023-02-01T16:00:24;84.93;;;49.10;;
55312;SDS011;46892;45.668;11.756;2023-02-01T16:02:59;91.50;;;51.93;;
55312;SDS011;46892;45.668;11.756;2023-02-01T16:05:45;93.27;;;51.90;;
55312;SDS011;46892;45.668;11.756;2023-02-01T16:08:20;96.30;;;53.20;;
55312;SDS011;46892;45.668;11.756;2023-02-01T16:10:49;96.27;;;52.13;;
55312;SDS011;46892;45.668;11.756;2023-02-01T16:13:17;95.07;;;51.33;;
55312;SDS011;46892;45.668;11.756;2023-02-01T16:15:45;125.03;;;65.63;;
55312;SDS011;46892;45.668;11.756;2023-02-01T16:18:11;100.43;;;55.40;;
55312;SDS011;46892;45.668;11.756;2023-02-01T16:20:39;90.33;;;51.53;;
55312;SDS011;46892;45.668;11.756;2023-02-01T16:23:06;89.80;;;51.07;;
55312;SDS011;46892;45.668;11.756;2023-02-01T16:25:33;93.67;;;52.07;;
55312;SDS011;46892;45.668;11.756;2023-02-01T16:27:59;90.33;;;52.03;;
55312;SDS011;46892;45.668;11.756;2023-02-01T16:30:24;89.40;;;52.23;;
55312;SDS011;46892;45.668;11.756;2023-02-01T16:32:56;86.97;;;50.57;;
55312;SDS011;46892;45.668;11.756;2023-02-01T16:35:26;84.57;;;48.97;;
55312;SDS011;46892;45.668;11.756;2023-02-01T16:38:02;80.23;;;47.93;;
55312;SDS011;46892;45.668;11.756;2023-02-01T16:40:38;81.77;;;47.63;;
55312;SDS011;46892;45.668;11.756;2023-02-01T16:43:26;89.80;;;52.13;;
55312;SDS011;46892;45.668;11.756;2023-02-01T16:45:51;92.63;;;52.43;;
55312;SDS011;46892;45.668;11.756;2023-02-01T16:48:29;90.83;;;51.40;;
55312;SDS011;46892;45.668;11.756;2023-02-01T16:50:57;89.23;;;49.53;;
55312;SDS011;46892;45.668;11.756;2023-02-01T16:53:26;90.47;;;52.05;;
55312;SDS011;46892;45.668;11.756;2023-02-01T16:55:53;89.27;;;49.57;;
55312;SDS011;46892;45.668;11.756;2023-02-01T16:58:19;82.57;;;48.50;;
55312;SDS011;46892;45.668;11.756;2023-02-01T17:00:46;84.97;;;49.70;;
55312;SDS011;46892;45.668;11.756;2023-02-01T17:03:13;83.40;;;48.07;;
55312;SDS011;46892;45.668;11.756;2023-02-01T17:05:47;92.77;;;52.97;;
55312;SDS011;46892;45.668;11.756;2023-02-01T17:08:17;91.17;;;51.80;;
55312;SDS011;46892;45.668;11.756;2023-02-01T17:10:50;94.83;;;51.30;;
55312;SDS011;46892;45.668;11.756;2023-02-01T17:13:15;104.00;;;58.00;;
55312;SDS011;46892;45.668;11.756;2023-02-01T17:15:47;99.43;;;54.80;;
55312;SDS011;46892;45.668;11.756;2023-02-01T17:18:17;101.30;;;55.10;;
55312;SDS011;46892;45.668;11.756;2023-02-01T17:20:43;98.20;;;56.67;;